createdAt,value
2022-08-15T00:05:05.082Z,9.30
2022-08-15T00:11:01.119Z,9.93
2022-08-15T00:15:43.725Z,9.90
2022-08-15T00:20:49.969Z,9.40
2022-08-15T00:25:59.458Z,12.67
2022-08-15T00:31:40.860Z,11.13
2022-08-15T00:36:52.917Z,11.33
2022-08-15T00:41:58.168Z,11.03
2022-08-15T00:47:04.690Z,13.57
2022-08-15T00:52:27.400Z,10.80
2022-08-15T00:58:00.281Z,14.00
2022-08-15T01:03:00.355Z,12.33
2022-08-15T01:08:05.454Z,11.00
2022-08-15T01:13:18.795Z,10.37
2022-08-15T01:18:35.369Z,12.35
2022-08-15T01:23:54.575Z,11.90
2022-08-15T01:28:59.005Z,11.88
2022-08-15T01:34:04.100Z,11.65
2022-08-15T01:39:22.035Z,11.15
2022-08-15T01:44:36.783Z,11.13
2022-08-15T01:49:59.163Z,10.43
2022-08-15T01:55:08.466Z,14.52
2022-08-15T02:00:18.024Z,14.93
2022-08-15T02:05:26.596Z,12.85
2022-08-15T02:10:36.046Z,12.48
2022-08-15T02:15:43.831Z,11.40
2022-08-15T02:20:51.043Z,12.63
2022-08-15T02:25:55.445Z,10.52
2022-08-15T02:30:58.565Z,12.13
2022-08-15T02:36:06.735Z,14.25
2022-08-15T02:41:23.049Z,12.45
2022-08-15T02:46:31.991Z,14.02
2022-08-15T02:51:46.528Z,13.75
2022-08-15T02:57:02.070Z,11.95
2022-08-15T03:02:05.849Z,12.15
2022-08-15T03:07:28.909Z,11.52
2022-08-15T03:12:36.104Z,15.32
2022-08-15T03:17:43.808Z,12.75
2022-08-15T03:22:50.056Z,13.98
2022-08-15T03:28:03.633Z,13.18
2022-08-15T03:33:08.448Z,14.77
2022-08-15T03:38:11.894Z,12.68
2022-08-15T03:43:22.606Z,14.15
2022-08-15T03:48:28.056Z,13.52
2022-08-15T03:53:45.842Z,16.13
2022-08-15T03:58:53.445Z,15.10
2022-08-15T04:09:12.632Z,14.05
2022-08-15T04:14:31.552Z,16.30
2022-08-15T04:29:58.380Z,17.95
2022-08-15T04:41:17.655Z,14.10
2022-08-15T04:45:39.064Z,16.40
2022-08-15T05:01:04.300Z,16.02
2022-08-15T05:06:29.414Z,20.07
2022-08-15T05:12:00.609Z,22.40
2022-08-15T05:17:07.382Z,19.67
2022-08-15T05:22:13.668Z,18.23
2022-08-15T05:27:21.781Z,16.00
2022-08-15T05:32:25.011Z,21.63
2022-08-15T05:37:41.344Z,18.63
2022-08-15T05:42:53.889Z,18.73
2022-08-15T05:48:20.283Z,15.60
2022-08-15T05:53:33.048Z,19.13
2022-08-15T05:58:51.656Z,16.27
2022-08-15T06:04:08.144Z,15.30
2022-08-15T06:09:18.228Z,15.10
2022-08-15T06:14:34.727Z,14.47
2022-08-15T06:19:47.185Z,15.20
2022-08-15T06:24:53.364Z,14.10
2022-08-15T06:30:15.328Z,15.25
2022-08-15T06:35:36.433Z,17.55
2022-08-15T06:40:58.015Z,14.20
2022-08-15T06:46:47.023Z,17.98
2022-08-15T06:51:45.316Z,19.90
2022-08-15T06:56:52.112Z,17.15
2022-08-15T07:02:15.589Z,22.48
2022-08-15T07:07:39.609Z,16.55
2022-08-15T07:13:03.856Z,13.48
2022-08-15T07:18:21.196Z,17.70
2022-08-15T07:23:36.979Z,16.88
2022-08-15T07:28:48.001Z,17.20
2022-08-15T07:33:56.358Z,16.85
2022-08-15T07:39:34.185Z,14.52
2022-08-15T07:44:50.269Z,17.88
2022-08-15T07:49:59.454Z,15.35
2022-08-15T08:00:45.914Z,19.92
2022-08-15T08:06:33.863Z,19.85
2022-08-15T08:11:30.053Z,14.10
2022-08-15T08:16:44.023Z,15.88
2022-08-15T08:21:55.460Z,15.52
2022-08-15T08:27:02.883Z,17.73
2022-08-15T08:32:29.852Z,13.75
2022-08-15T08:37:54.481Z,16.58
2022-08-15T08:43:10.778Z,14.75
2022-08-15T08:48:20.954Z,14.38
2022-08-15T08:53:56.492Z,14.23
2022-08-15T08:59:10.624Z,22.08
2022-08-15T09:04:18.663Z,15.07
2022-08-15T09:09:30.785Z,15.73
2022-08-15T09:14:56.766Z,18.67
2022-08-15T09:20:12.209Z,16.80
2022-08-15T09:25:30.541Z,14.13
2022-08-15T09:30:48.691Z,17.95
2022-08-15T09:36:05.151Z,18.58
2022-08-15T09:41:25.333Z,14.80
2022-08-15T09:46:42.876Z,16.20
2022-08-15T09:51:59.018Z,14.35
2022-08-15T09:57:41.090Z,16.92
2022-08-15T10:02:46.622Z,18.38
2022-08-15T10:07:53.412Z,15.23
2022-08-15T10:13:08.857Z,15.82
2022-08-15T10:18:24.116Z,15.73
2022-08-15T10:23:38.237Z,17.13
2022-08-15T10:28:57.547Z,14.30
2022-08-15T10:34:04.247Z,13.65
2022-08-15T10:39:19.601Z,19.40
2022-08-15T10:44:36.361Z,14.52
2022-08-15T10:49:44.303Z,14.80
2022-08-15T10:55:03.651Z,14.45
2022-08-15T11:00:35.438Z,21.88
2022-08-15T11:05:30.941Z,38.92
2022-08-15T11:10:34.285Z,25.15
2022-08-15T11:15:57.063Z,16.63
2022-08-15T11:21:22.707Z,16.92
2022-08-15T11:26:33.546Z,18.27
2022-08-15T11:31:56.053Z,18.67
2022-08-15T11:37:04.474Z,18.60
2022-08-15T11:42:11.815Z,17.02
2022-08-15T11:47:20.056Z,17.23
2022-08-15T11:52:41.202Z,16.70
2022-08-15T11:57:54.529Z,17.77
2022-08-15T12:04:39.734Z,19.08
2022-08-15T12:08:46.718Z,15.68
2022-08-15T12:13:55.172Z,19.52
2022-08-15T12:19:06.181Z,15.27
2022-08-15T12:24:11.443Z,16.20
2022-08-15T12:29:13.758Z,17.73
2022-08-15T12:34:29.543Z,17.27
2022-08-15T12:39:41.027Z,15.85
2022-08-15T12:44:48.694Z,16.48
2022-08-15T12:49:51.287Z,16.25
2022-08-15T12:55:01.767Z,17.05
2022-08-15T13:00:35.259Z,15.45
2022-08-15T13:06:01.270Z,14.35
2022-08-15T13:11:08.800Z,15.27
2022-08-15T13:17:07.141Z,15.57
2022-08-15T13:21:58.316Z,15.05
2022-08-15T13:27:08.440Z,15.50
2022-08-15T13:32:13.576Z,15.68
2022-08-15T13:37:18.452Z,19.65
2022-08-15T13:42:45.916Z,21.48
2022-08-15T13:47:54.015Z,16.92
2022-08-15T13:52:58.986Z,17.30
2022-08-15T13:58:05.779Z,18.08
2022-08-15T14:03:23.848Z,17.63
2022-08-15T14:08:28.284Z,16.45
2022-08-15T14:13:35.519Z,18.23
2022-08-15T14:18:51.232Z,16.73
2022-08-15T14:23:59.506Z,19.98
2022-08-15T14:29:18.069Z,21.30
2022-08-15T14:34:57.563Z,20.08
2022-08-15T14:40:02.313Z,19.00
2022-08-15T14:45:16.852Z,19.05
2022-08-15T14:50:54.176Z,19.73
2022-08-15T14:55:50.962Z,19.17
2022-08-15T15:00:57.664Z,17.83
2022-08-15T15:06:24.517Z,21.42
2022-08-15T15:11:30.896Z,18.98
2022-08-15T15:16:40.787Z,20.00
2022-08-15T15:21:46.649Z,44.28
2022-08-15T15:26:55.358Z,17.33
2022-08-15T15:32:01.613Z,18.05
2022-08-15T15:37:09.164Z,15.97
2022-08-15T15:42:17.482Z,16.83
2022-08-15T15:47:25.403Z,16.00
2022-08-15T15:52:32.938Z,17.50
2022-08-15T15:58:00.914Z,18.30
2022-08-15T16:03:04.822Z,17.65
2022-08-15T16:08:29.359Z,19.02
2022-08-15T16:13:48.392Z,21.27
2022-08-15T16:19:00.717Z,19.10
2022-08-15T16:24:09.413Z,14.37
2022-08-15T16:29:13.920Z,15.37
2022-08-15T16:34:28.347Z,16.27
2022-08-15T16:39:41.047Z,16.50
2022-08-15T16:44:57.223Z,16.83
2022-08-15T16:50:18.087Z,22.37
2022-08-15T16:55:29.763Z,17.93
2022-08-15T17:00:44.695Z,23.10
2022-08-15T17:06:00.535Z,16.20
2022-08-15T17:11:09.817Z,20.20
2022-08-15T17:16:35.658Z,11.93
2022-08-15T17:21:43.766Z,6.77
2022-08-15T17:26:49.671Z,7.73
2022-08-15T17:32:07.667Z,8.20
2022-08-15T17:37:22.190Z,8.70
2022-08-15T17:42:34.316Z,7.63
2022-08-15T17:47:39.674Z,8.23
2022-08-15T17:52:57.178Z,10.43
2022-08-15T17:58:11.314Z,7.10
2022-08-15T18:03:15.062Z,9.63
2022-08-15T18:08:32.552Z,9.90
2022-08-15T18:13:39.533Z,9.23
2022-08-15T18:18:57.682Z,7.57
2022-08-15T18:24:38.597Z,8.67
2022-08-15T18:29:29.337Z,10.13
2022-08-15T18:34:53.633Z,10.83
2022-08-15T18:40:14.751Z,9.67
2022-08-15T18:45:37.144Z,10.40
2022-08-15T18:50:46.509Z,9.53
2022-08-15T18:56:26.103Z,8.23
2022-08-15T19:01:32.825Z,11.60
2022-08-15T19:06:50.517Z,9.63
2022-08-15T19:11:59.521Z,10.87
2022-08-15T19:17:19.693Z,10.37
2022-08-15T19:22:29.527Z,10.50
2022-08-15T19:27:41.832Z,11.60
2022-08-15T19:32:51.280Z,11.70
2022-08-15T19:38:16.980Z,11.23
2022-08-15T19:43:40.419Z,11.43
2022-08-15T19:49:03.243Z,10.77
2022-08-15T19:55:19.368Z,9.60
2022-08-15T20:00:17.384Z,13.43
2022-08-15T20:06:05.871Z,14.90
2022-08-15T20:10:56.987Z,11.70
2022-08-15T20:16:08.170Z,10.00
2022-08-15T20:21:21.987Z,11.97
2022-08-15T20:26:56.522Z,12.30
2022-08-15T20:32:22.567Z,12.60
2022-08-15T20:37:37.423Z,12.07
2022-08-15T20:42:57.599Z,12.43
2022-08-15T20:48:41.314Z,12.00
2022-08-15T20:53:37.476Z,12.27
2022-08-15T20:58:56.915Z,13.47
2022-08-15T21:04:32.784Z,12.20
2022-08-15T21:09:53.560Z,15.37
2022-08-15T21:15:10.168Z,15.60
2022-08-15T21:20:30.721Z,15.50
2022-08-15T21:25:54.045Z,13.23
2022-08-15T21:31:02.311Z,13.33
2022-08-15T21:36:34.851Z,12.97
2022-08-15T21:41:38.688Z,18.20
2022-08-15T21:46:58.581Z,14.10
2022-08-15T21:52:18.040Z,17.67
2022-08-15T21:57:37.738Z,13.33
2022-08-15T22:02:58.328Z,14.67
2022-08-15T22:08:16.338Z,15.50
2022-08-15T22:13:19.835Z,14.80
2022-08-15T22:18:28.665Z,14.43
2022-08-15T22:24:07.780Z,14.57
2022-08-15T22:29:24.435Z,14.57
2022-08-15T22:34:35.079Z,14.73
2022-08-15T22:39:43.662Z,16.63
2022-08-15T22:44:51.133Z,16.53
2022-08-15T22:49:56.212Z,15.67
2022-08-15T22:55:00.040Z,14.53
2022-08-15T23:00:06.065Z,15.10
2022-08-15T23:05:27.806Z,16.03
2022-08-15T23:10:45.414Z,15.10
2022-08-15T23:16:00.169Z,19.00
2022-08-15T23:21:04.947Z,15.63
2022-08-15T23:26:31.737Z,18.00
2022-08-15T23:31:37.749Z,19.10
2022-08-15T23:37:01.892Z,17.60
2022-08-15T23:42:27.726Z,14.37
2022-08-15T23:47:31.095Z,15.47
2022-08-15T23:53:00.039Z,19.80
2022-08-15T23:58:13.760Z,17.97
